Time;durP1;ratioP1;P1;durP2;ratioP2;P2;SDS_P1;SDS_P2;PMS_P1;PMS_P2;Temp;Humidity;BMP_temperature;BMP_pressure;BME280_temperature;BME280_humidity;BME280_pressure;Samples;Min_cycle;Max_cycle;Signal;HPM_P1;HPM_P2
2023/12/19 00:02:04;;;;;;;3.13;2.08;;;;;;;;;;5056947;28;20079;-24
2023/12/19 00:04:33;;;;;;;3.35;1.92;;;;;;;;;;5056784;28;20514;-23
2023/12/19 00:06:59;;;;;;;5.03;2.45;;;;;;;;;;5057146;28;20083;-26
2023/12/19 00:09:25;;;;;;;3.92;1.98;;;;;;;;;;5056750;28;20463;-27
2023/12/19 00:11:51;;;;;;;2.97;1.98;;;;;;;;;;5056743;28;20470;-24
2023/12/19 00:14:18;;;;;;;3.22;2.42;;;;;;;;;;5056745;28;20025;-28
2023/12/19 00:16:44;;;;;;;5.80;2.10;;;;;;;;;;5056948;28;20025;-27
2023/12/19 00:19:10;;;;;;;9.57;2.38;;;;;;;;;;5056626;28;20025;-26
2023/12/19 00:21:36;;;;;;;2.45;1.88;;;;;;;;;;5056503;28;20415;-24
2023/12/19 00:24:02;;;;;;;5.38;2.40;;;;;;;;;;5056746;28;20044;-23
2023/12/19 00:26:28;;;;;;;2.25;1.58;;;;;;;;;;5056785;28;20025;-24
2023/12/19 00:28:54;;;;;;;3.95;2.10;;;;;;;;;;5056631;28;20031;-24
2023/12/19 00:31:21;;;;;;;4.40;1.75;;;;;;;;;;5055887;28;20087;-27
2023/12/19 00:33:47;;;;;;;2.58;2.10;;;;;;;;;;5056409;28;20025;-27
2023/12/19 00:36:23;;;;;;;3.25;2.08;;;;;;;;;;5056552;28;20017;-24
2023/12/19 00:38:50;;;;;;;2.67;2.47;;;;;;;;;;5056288;28;20056;-23
2023/12/19 00:41:16;;;;;;;6.15;1.90;;;;;;;;;;5056183;28;20040;-26
2023/12/19 00:43:43;;;;;;;4.00;1.70;;;;;;;;;;5056064;28;20094;-24
2023/12/19 00:46:09;;;;;;;3.22;2.50;;;;;;;;;;5056154;28;20375;-24
2023/12/19 00:48:36;;;;;;;2.85;2.17;;;;;;;;;;5056801;28;20029;-24
2023/12/19 00:51:02;;;;;;;3.88;2.33;;;;;;;;;;5055369;28;20039;-23
2023/12/19 00:53:28;;;;;;;3.53;1.60;;;;;;;;;;5055937;28;20027;-24
2023/12/19 00:55:54;;;;;;;2.17;2.03;;;;;;;;;;5056179;28;20033;-26
2023/12/19 00:58:20;;;;;;;2.33;1.75;;;;;;;;;;5056147;28;20086;-26
2023/12/19 01:00:47;;;;;;;3.42;1.52;;;;;;;;;;5056024;28;20543;-26
2023/12/19 01:03:13;;;;;;;3.05;2.50;;;;;;;;;;5055837;28;20087;-25
2023/12/19 01:05:39;;;;;;;2.88;1.90;;;;;;;;;;5055593;28;20028;-26
2023/12/19 01:08:05;;;;;;;4.90;3.22;;;;;;;;;;5055697;28;20099;-26
2023/12/19 01:10:31;;;;;;;2.65;1.70;;;;;;;;;;5055549;28;20017;-23
2023/12/19 01:12:57;;;;;;;2.00;1.80;;;;;;;;;;5055603;28;20503;-27
2023/12/19 01:15:24;;;;;;;4.05;1.80;;;;;;;;;;5055505;28;20025;-25
2023/12/19 01:17:50;;;;;;;1.70;1.60;;;;;;;;;;5055537;28;20043;-25
2023/12/19 01:20:16;;;;;;;3.42;2.22;;;;;;;;;;5055335;28;20447;-27
2023/12/19 01:22:43;;;;;;;2.35;1.80;;;;;;;;;;5055374;28;20101;-26
2023/12/19 01:25:09;;;;;;;4.43;1.90;;;;;;;;;;5055311;28;20090;-25
2023/12/19 01:27:35;;;;;;;3.92;1.73;;;;;;;;;;5055309;28;20029;-23
2023/12/19 01:30:01;;;;;;;2.70;1.80;;;;;;;;;;5055280;28;20032;-25
2023/12/19 01:32:27;;;;;;;2.85;2.25;;;;;;;;;;5054988;28;20033;-24
2023/12/19 01:34:54;;;;;;;2.17;1.80;;;;;;;;;;5055205;28;20452;-23
2023/12/19 01:37:20;;;;;;;3.08;2.08;;;;;;;;;;5055110;28;20040;-27
2023/12/19 01:39:46;;;;;;;1.98;1.73;;;;;;;;;;5055097;28;20104;-25
2023/12/19 01:42:12;;;;;;;2.25;2.05;;;;;;;;;;5053366;28;20021;-26
2023/12/19 01:44:38;;;;;;;4.32;1.83;;;;;;;;;;5055219;28;20025;-23
2023/12/19 01:47:04;;;;;;;2.30;2.10;;;;;;;;;;5055240;28;20352;-23
2023/12/19 01:49:31;;;;;;;5.25;2.33;;;;;;;;;;5055415;28;20090;-25
2023/12/19 01:51:57;;;;;;;3.05;1.58;;;;;;;;;;5054789;28;20032;-23
2023/12/19 01:54:23;;;;;;;4.82;2.45;;;;;;;;;;5054836;28;20477;-27
2023/12/19 01:56:50;;;;;;;4.25;1.95;;;;;;;;;;5054795;28;20470;-26
2023/12/19 01:59:16;;;;;;;4.75;2.00;;;;;;;;;;5054737;28;20036;-26
2023/12/19 02:01:43;;;;;;;3.15;2.05;;;;;;;;;;5054930;28;20106;-23
2023/12/19 02:04:10;;;;;;;1.92;1.75;;;;;;;;;;5054685;28;20483;-26
2023/12/19 02:06:36;;;;;;;2.40;1.67;;;;;;;;;;5054700;28;20063;-26
2023/12/19 02:09:02;;;;;;;4.93;1.90;;;;;;;;;;5055211;28;20021;-23
2023/12/19 02:11:29;;;;;;;4.90;2.33;;;;;;;;;;5054511;28;20025;-24
2023/12/19 02:13:58;;;;;;;3.67;3.33;;;;;;;;;;5054877;28;20344;-25
2023/12/19 02:16:26;;;;;;;2.22;1.65;;;;;;;;;;5054569;28;20017;-27
2023/12/19 02:19:04;;;;;;;2.60;1.92;;;;;;;;;;5054791;28;20334;-25
2023/12/19 02:21:31;;;;;;;3.83;2.22;;;;;;;;;;5054510;28;20028;-24
2023/12/19 02:23:57;;;;;;;1.67;1.58;;;;;;;;;;5054340;28;20039;-25
2023/12/19 02:26:24;;;;;;;2.60;1.90;;;;;;;;;;5053511;28;20444;-25
2023/12/19 02:28:52;;;;;;;2.92;1.98;;;;;;;;;;5054437;28;20024;-24
2023/12/19 02:31:21;;;;;;;3.60;1.95;;;;;;;;;;5054203;28;20025;-24
2023/12/19 02:33:47;;;;;;;2.38;1.98;;;;;;;;;;5054410;28;20475;-24
2023/12/19 02:36:14;;;;;;;2.20;2.00;;;;;;;;;;5053397;28;20471;-26
2023/12/19 02:38:40;;;;;;;2.33;1.90;;;;;;;;;;5054569;28;20025;-27
2023/12/19 02:41:07;;;;;;;2.47;1.65;;;;;;;;;;5054253;28;20114;-26
2023/12/19 02:43:34;;;;;;;4.78;1.90;;;;;;;;;;5054536;28;20036;-25
2023/12/19 02:46:00;;;;;;;1.85;1.63;;;;;;;;;;5054162;28;20456;-26
2023/12/19 02:48:26;;;;;;;2.08;1.75;;;;;;;;;;5054221;28;20108;-25
2023/12/19 02:50:52;;;;;;;2.08;1.80;;;;;;;;;;5054408;28;20021;-24
2023/12/19 02:53:18;;;;;;;3.00;1.85;;;;;;;;;;5056153;28;20017;-24
2023/12/19 02:55:45;;;;;;;4.13;1.95;;;;;;;;;;5058162;28;20082;-24
2023/12/19 02:58:11;;;;;;;2.08;1.60;;;;;;;;;;5058464;28;20025;-27
2023/12/19 03:00:37;;;;;;;4.35;2.30;;;;;;;;;;5058303;28;20029;-28
2023/12/19 03:03:03;;;;;;;2.65;2.10;;;;;;;;;;5058089;28;20017;-24
2023/12/19 03:05:29;;;;;;;2.55;2.10;;;;;;;;;;5057940;28;20456;-26
2023/12/19 03:07:56;;;;;;;1.92;1.75;;;;;;;;;;5058253;28;20021;-24
2023/12/19 03:10:22;;;;;;;1.73;1.63;;;;;;;;;;5058107;28;20033;-24
2023/12/19 03:12:48;;;;;;;2.05;1.80;;;;;;;;;;5058173;28;20451;-24
2023/12/19 03:15:14;;;;;;;4.25;2.30;;;;;;;;;;5057838;28;20025;-27
2023/12/19 03:17:40;;;;;;;2.30;1.95;;;;;;;;;;5058001;28;20025;-27
2023/12/19 03:20:08;;;;;;;6.88;2.55;;;;;;;;;;5057770;28;20029;-24
2023/12/19 03:22:34;;;;;;;2.22;2.03;;;;;;;;;;5057626;28;20032;-25
2023/12/19 03:25:01;;;;;;;4.03;2.10;;;;;;;;;;5056635;28;20168;-24
2023/12/19 03:27:28;;;;;;;2.45;2.13;;;;;;;;;;5057555;28;20090;-26
2023/12/19 03:29:54;;;;;;;2.53;2.33;;;;;;;;;;5057576;28;20032;-24
2023/12/19 03:32:21;;;;;;;2.80;1.90;;;;;;;;;;5057287;28;20051;-25
2023/12/19 03:34:47;;;;;;;2.13;1.85;;;;;;;;;;5057731;28;20029;-26
2023/12/19 03:37:14;;;;;;;2.35;2.17;;;;;;;;;;5056511;28;20033;-24
2023/12/19 03:39:40;;;;;;;2.20;1.95;;;;;;;;;;5057589;28;20452;-24
2023/12/19 03:42:06;;;;;;;6.05;2.42;;;;;;;;;;5056328;28;20463;-25
2023/12/19 03:44:32;;;;;;;3.45;2.15;;;;;;;;;;5057159;28;20036;-26
2023/12/19 03:46:58;;;;;;;1.50;1.40;;;;;;;;;;5057263;28;20025;-28
2023/12/19 03:49:24;;;;;;;2.63;1.63;;;;;;;;;;5057119;28;20117;-27
2023/12/19 03:51:50;;;;;;;2.08;1.85;;;;;;;;;;5057326;28;20036;-24
2023/12/19 03:54:16;;;;;;;2.47;1.80;;;;;;;;;;5057115;28;20028;-26
2023/12/19 03:56:43;;;;;;;2.22;2.03;;;;;;;;;;5057001;28;20356;-24
2023/12/19 03:59:13;;;;;;;2.30;1.92;;;;;;;;;;5057078;28;20407;-24
2023/12/19 04:01:43;;;;;;;2.37;2.17;;;;;;;;;;5057261;28;20070;-24
2023/12/19 04:04:09;;;;;;;2.10;1.90;;;;;;;;;;5056152;28;20337;-24
2023/12/19 04:06:35;;;;;;;2.00;1.80;;;;;;;;;;5057172;28;20318;-23
2023/12/19 04:09:01;;;;;;;1.92;1.73;;;;;;;;;;5055881;28;20036;-25
2023/12/19 04:11:28;;;;;;;3.20;1.73;;;;;;;;;;5056703;28;20028;-24
2023/12/19 04:13:54;;;;;;;2.55;1.80;;;;;;;;;;5056743;28;20025;-27
2023/12/19 04:16:20;;;;;;;3.33;2.20;;;;;;;;;;5057249;28;20025;-26
2023/12/19 04:18:46;;;;;;;1.60;1.35;;;;;;;;;;5056647;28;20024;-25
2023/12/19 04:21:12;;;;;;;2.88;2.17;;;;;;;;;;5056576;28;20079;-26
2023/12/19 04:23:38;;;;;;;3.80;1.95;;;;;;;;;;5056788;28;20343;-24
2023/12/19 04:26:04;;;;;;;1.80;1.70;;;;;;;;;;5056495;28;20426;-24
2023/12/19 04:28:30;;;;;;;1.95;1.77;;;;;;;;;;5056513;28;20395;-25
2023/12/19 04:30:57;;;;;;;1.92;1.83;;;;;;;;;;5056392;28;20474;-24
2023/12/19 04:33:23;;;;;;;2.05;1.95;;;;;;;;;;5056196;28;20049;-26
2023/12/19 04:35:49;;;;;;;2.42;2.10;;;;;;;;;;5056361;28;20029;-27
2023/12/19 04:38:15;;;;;;;2.05;1.85;;;;;;;;;;5056579;28;20449;-27
2023/12/19 04:40:41;;;;;;;1.88;1.67;;;;;;;;;;5056332;28;20029;-24
2023/12/19 04:43:07;;;;;;;2.58;1.58;;;;;;;;;;5056746;28;20032;-24
2023/12/19 04:45:34;;;;;;;1.63;1.52;;;;;;;;;;5056071;28;20025;-24
2023/12/19 04:48:00;;;;;;;5.38;3.03;;;;;;;;;;5056103;28;20464;-26
2023/12/19 04:50:26;;;;;;;1.88;1.77;;;;;;;;;;5056233;28;20403;-27
2023/12/19 04:52:52;;;;;;;2.20;2.00;;;;;;;;;;5056007;28;20111;-27
2023/12/19 04:55:18;;;;;;;2.00;1.80;;;;;;;;;;5055980;28;20095;-26
2023/12/19 04:57:44;;;;;;;1.98;1.83;;;;;;;;;;5056173;28;20029;-25
2023/12/19 05:00:11;;;;;;;2.47;1.70;;;;;;;;;;5055877;28;20021;-25
2023/12/19 05:02:37;;;;;;;2.30;1.73;;;;;;;;;;5056036;28;20049;-23
2023/12/19 05:05:03;;;;;;;1.90;1.80;;;;;;;;;;5055692;28;20098;-24
2023/12/19 05:07:31;;;;;;;2.17;1.98;;;;;;;;;;5055780;28;20017;-27
2023/12/19 05:09:57;;;;;;;2.30;2.10;;;;;;;;;;5055821;28;20086;-24
2023/12/19 05:12:24;;;;;;;2.35;1.88;;;;;;;;;;5055188;28;20471;-27
2023/12/19 05:14:50;;;;;;;2.55;2.05;;;;;;;;;;5055353;28;20111;-27
2023/12/19 05:17:16;;;;;;;2.22;2.03;;;;;;;;;;5055328;28;20024;-27
2023/12/19 05:19:43;;;;;;;2.55;2.08;;;;;;;;;;5055243;28;20337;-26
2023/12/19 05:22:10;;;;;;;1.95;1.77;;;;;;;;;;5055469;28;20116;-27
2023/12/19 05:24:38;;;;;;;1.95;1.85;;;;;;;;;;5054073;28;20452;-27
2023/12/19 05:27:07;;;;;;;1.88;1.67;;;;;;;;;;5055235;28;20023;-27
2023/12/19 05:29:33;;;;;;;1.60;1.50;;;;;;;;;;5055203;28;20032;-25
2023/12/19 05:32:00;;;;;;;2.42;2.28;;;;;;;;;;5053955;28;20045;-23
2023/12/19 05:34:26;;;;;;;2.92;2.33;;;;;;;;;;5055086;28;20389;-24
2023/12/19 05:36:52;;;;;;;1.67;1.58;;;;;;;;;;5054927;28;20533;-25
2023/12/19 05:39:18;;;;;;;1.83;1.73;;;;;;;;;;5055062;28;20363;-26
2023/12/19 05:41:44;;;;;;;1.92;1.73;;;;;;;;;;5054765;28;20021;-26
2023/12/19 05:44:11;;;;;;;1.63;1.52;;;;;;;;;;5055031;28;20032;-25
2023/12/19 05:46:39;;;;;;;1.88;1.77;;;;;;;;;;5054735;28;20467;-23
2023/12/19 05:49:06;;;;;;;1.85;1.63;;;;;;;;;;5055077;28;20059;-26
2023/12/19 05:51:32;;;;;;;1.75;1.63;;;;;;;;;;5054623;28;20052;-27
2023/12/19 05:53:59;;;;;;;1.92;1.50;;;;;;;;;;5055100;28;20440;-26
2023/12/19 05:56:26;;;;;;;1.85;1.35;;;;;;;;;;5055033;28;20341;-27
2023/12/19 05:58:52;;;;;;;1.52;1.40;;;;;;;;;;5054676;28;20021;-27
2023/12/19 06:01:18;;;;;;;2.10;1.60;;;;;;;;;;5054647;28;20119;-27
2023/12/19 06:03:44;;;;;;;3.25;1.70;;;;;;;;;;5054937;28;20028;-26
2023/12/19 06:06:16;;;;;;;1.52;1.42;;;;;;;;;;5054877;28;20035;-24
2023/12/19 06:08:43;;;;;;;1.98;1.77;;;;;;;;;;5054571;28;20021;-26
2023/12/19 06:11:12;;;;;;;1.92;1.83;;;;;;;;;;5054636;28;20021;-23
2023/12/19 06:13:38;;;;;;;1.85;1.65;;;;;;;;;;5054427;28;20052;-27
2023/12/19 06:16:05;;;;;;;1.70;1.60;;;;;;;;;;5054368;28;20056;-27
2023/12/19 06:18:32;;;;;;;2.88;1.60;;;;;;;;;;5054314;28;20087;-26
2023/12/19 06:21:01;;;;;;;1.42;1.33;;;;;;;;;;5054351;28;20444;-26
2023/12/19 06:23:28;;;;;;;2.88;2.55;;;;;;;;;;5054224;28;20029;-24
2023/12/19 06:25:54;;;;;;;2.45;1.40;;;;;;;;;;5054270;28;20371;-24
2023/12/19 06:28:22;;;;;;;1.85;1.65;;;;;;;;;;5053564;28;20116;-24
2023/12/19 06:30:49;;;;;;;2.10;1.50;;;;;;;;;;5054345;28;20033;-23
2023/12/19 06:33:15;;;;;;;2.20;2.00;;;;;;;;;;5053805;28;20372;-24
2023/12/19 06:35:43;;;;;;;3.53;2.40;;;;;;;;;;5054154;28;20041;-23
2023/12/19 06:38:09;;;;;;;1.58;1.45;;;;;;;;;;5054151;28;20345;-25
2023/12/19 06:40:35;;;;;;;3.25;2.85;;;;;;;;;;5054093;28;20024;-24
2023/12/19 06:43:05;;;;;;;3.22;2.05;;;;;;;;;;5054353;28;20059;-24
2023/12/19 06:45:33;;;;;;;2.60;1.83;;;;;;;;;;5054052;28;20052;-28
2023/12/19 06:48:01;;;;;;;1.80;1.70;;;;;;;;;;5054323;28;20032;-25
2023/12/19 06:50:28;;;;;;;2.70;1.98;;;;;;;;;;5055024;28;20025;-24
2023/12/19 06:52:54;;;;;;;4.18;1.88;;;;;;;;;;5053942;28;20079;-23
2023/12/19 06:55:21;;;;;;;4.43;1.83;;;;;;;;;;5054158;28;20021;-24
2023/12/19 06:57:47;;;;;;;2.60;1.92;;;;;;;;;;5053776;28;20021;-26
2023/12/19 07:00:13;;;;;;;2.15;1.83;;;;;;;;;;5053821;28;20025;-25
2023/12/19 07:02:41;;;;;;;7.00;2.15;;;;;;;;;;5053816;28;20029;-27
2023/12/19 07:05:08;;;;;;;3.20;1.98;;;;;;;;;;5054449;28;20460;-24
2023/12/19 07:07:34;;;;;;;2.33;2.08;;;;;;;;;;5053189;28;20029;-24
2023/12/19 07:10:01;;;;;;;1.70;1.60;;;;;;;;;;5053916;28;20359;-27
2023/12/19 07:12:27;;;;;;;1.80;1.67;;;;;;;;;;5053698;28;20025;-25
2023/12/19 07:14:53;;;;;;;4.55;2.15;;;;;;;;;;5053804;28;20025;-25
2023/12/19 07:17:19;;;;;;;2.38;2.17;;;;;;;;;;5053687;28;20025;-27
2023/12/19 07:19:46;;;;;;;1.92;1.83;;;;;;;;;;5054028;28;20383;-24
2023/12/19 07:22:12;;;;;;;2.58;1.90;;;;;;;;;;5053652;28;20024;-26
2023/12/19 07:24:39;;;;;;;1.83;1.50;;;;;;;;;;5053513;28;20036;-25
2023/12/19 07:27:05;;;;;;;2.85;2.17;;;;;;;;;;5053923;28;20025;-24
2023/12/19 07:29:31;;;;;;;2.35;2.00;;;;;;;;;;5053787;28;20057;-25
2023/12/19 07:32:01;;;;;;;2.95;2.00;;;;;;;;;;5053411;28;20037;-28
2023/12/19 07:34:27;;;;;;;3.92;2.17;;;;;;;;;;5053888;28;20463;-26
2023/12/19 07:36:53;;;;;;;3.60;2.33;;;;;;;;;;5053563;28;20379;-26
2023/12/19 07:39:20;;;;;;;6.43;2.13;;;;;;;;;;5053516;28;20021;-23
2023/12/19 07:41:46;;;;;;;6.68;1.80;;;;;;;;;;5057003;28;20508;-25
2023/12/19 07:44:14;;;;;;;2.33;1.77;;;;;;;;;;5056961;28;20037;-26
2023/12/19 07:46:41;;;;;;;2.05;1.85;;;;;;;;;;5056971;28;20020;-25
2023/12/19 07:49:08;;;;;;;3.13;1.80;;;;;;;;;;5057142;28;20393;-23
2023/12/19 07:51:34;;;;;;;4.88;1.90;;;;;;;;;;5056987;28;20040;-24
2023/12/19 07:54:00;;;;;;;3.55;1.90;;;;;;;;;;5057094;28;20024;-24
2023/12/19 07:56:26;;;;;;;2.28;1.80;;;;;;;;;;5056889;28;20033;-28
2023/12/19 07:58:53;;;;;;;3.88;1.65;;;;;;;;;;5056869;28;20410;-26
2023/12/19 08:01:19;;;;;;;1.63;1.50;;;;;;;;;;5056783;28;20025;-26
2023/12/19 08:03:45;;;;;;;7.25;1.80;;;;;;;;;;5056814;28;20075;-24
2023/12/19 08:06:12;;;;;;;2.17;1.48;;;;;;;;;;5056850;28;20025;-26
2023/12/19 08:08:38;;;;;;;2.17;1.70;;;;;;;;;;5056734;28;20036;-25
2023/12/19 08:11:05;;;;;;;3.03;1.60;;;;;;;;;;5057213;28;20025;-26
2023/12/19 08:13:32;;;;;;;1.85;1.63;;;;;;;;;;5057399;28;20429;-26
2023/12/19 08:15:58;;;;;;;2.10;1.48;;;;;;;;;;5057297;28;20033;-25
2023/12/19 08:18:24;;;;;;;1.90;1.42;;;;;;;;;;5056750;28;20028;-25
2023/12/19 08:20:50;;;;;;;3.83;1.77;;;;;;;;;;5056299;28;20033;-25
2023/12/19 08:23:16;;;;;;;4.07;1.65;;;;;;;;;;5056428;28;20037;-27
2023/12/19 08:25:43;;;;;;;5.82;2.92;;;;;;;;;;5056406;28;20020;-27
2023/12/19 08:28:10;;;;;;;3.15;1.88;;;;;;;;;;5056406;28;20329;-27
2023/12/19 08:30:36;;;;;;;3.35;1.73;;;;;;;;;;5056372;28;20017;-27
2023/12/19 08:33:02;;;;;;;6.53;2.08;;;;;;;;;;5055939;28;20175;-27
2023/12/19 08:35:29;;;;;;;3.03;1.67;;;;;;;;;;5056518;28;20043;-24
2023/12/19 08:37:56;;;;;;;2.47;1.90;;;;;;;;;;5056192;28;20044;-25
2023/12/19 08:40:22;;;;;;;6.07;2.15;;;;;;;;;;5056132;28;20051;-26
2023/12/19 08:42:49;;;;;;;1.90;1.48;;;;;;;;;;5055933;28;20029;-24
2023/12/19 08:45:26;;;;;;;9.60;1.98;;;;;;;;;;5055734;28;20513;-24
2023/12/19 08:47:53;;;;;;;3.33;2.53;;;;;;;;;;5055781;28;20090;-24
2023/12/19 08:50:19;;;;;;;15.30;2.08;;;;;;;;;;5055285;28;20099;-23
2023/12/19 08:52:47;;;;;;;3.33;1.75;;;;;;;;;;5055981;28;20025;-23
2023/12/19 08:55:13;;;;;;;3.10;1.85;;;;;;;;;;5056004;28;20403;-23
2023/12/19 08:57:44;;;;;;;2.10;1.70;;;;;;;;;;5055992;28;20100;-24
2023/12/19 09:00:18;;;;;;;7.13;1.90;;;;;;;;;;5056025;28;20028;-27
2023/12/19 09:02:45;;;;;;;10.52;3.28;;;;;;;;;;5055969;28;20025;-26
2023/12/19 09:05:12;;;;;;;3.53;1.70;;;;;;;;;;5055905;28;20104;-26
2023/12/19 09:07:39;;;;;;;3.85;2.38;;;;;;;;;;5055571;28;20071;-24
2023/12/19 09:10:06;;;;;;;2.42;2.22;;;;;;;;;;5054621;28;20116;-26
2023/12/19 09:12:33;;;;;;;5.47;1.50;;;;;;;;;;5055419;28;20096;-27
2023/12/19 09:15:00;;;;;;;7.90;1.90;;;;;;;;;;5055443;28;20029;-28
2023/12/19 09:17:26;;;;;;;7.32;1.40;;;;;;;;;;5055361;28;20048;-27
2023/12/19 09:19:52;;;;;;;6.30;2.13;;;;;;;;;;5055288;28;20402;-26
2023/12/19 09:22:19;;;;;;;3.03;1.60;;;;;;;;;;5055226;28;20025;-25
2023/12/19 09:24:45;;;;;;;2.75;1.60;;;;;;;;;;5055399;28;20349;-23
2023/12/19 09:27:11;;;;;;;6.22;1.67;;;;;;;;;;5055162;28;20055;-26
2023/12/19 09:29:37;;;;;;;5.00;2.00;;;;;;;;;;5055142;28;20060;-26
2023/12/19 09:32:05;;;;;;;3.15;2.00;;;;;;;;;;5055118;28;20142;-23
2023/12/19 09:34:31;;;;;;;7.13;2.47;;;;;;;;;;5054883;28;20060;-27
2023/12/19 09:36:57;;;;;;;3.00;1.75;;;;;;;;;;5055048;28;20056;-26
2023/12/19 09:39:23;;;;;;;4.88;1.80;;;;;;;;;;5054894;28;20375;-28
2023/12/19 09:41:50;;;;;;;2.65;1.48;;;;;;;;;;5054807;28;20032;-25
2023/12/19 09:44:17;;;;;;;2.35;2.03;;;;;;;;;;5054686;28;20028;-26
2023/12/19 09:46:48;;;;;;;2.03;1.52;;;;;;;;;;5054698;28;20067;-27
2023/12/19 09:49:14;;;;;;;1.88;1.58;;;;;;;;;;5054752;28;20029;-25
2023/12/19 09:51:43;;;;;;;3.70;1.92;;;;;;;;;;5054748;28;20017;-24
2023/12/19 09:54:09;;;;;;;3.72;1.73;;;;;;;;;;5054469;28;20108;-27
2023/12/19 09:56:35;;;;;;;3.17;2.03;;;;;;;;;;5054842;28;20383;-26
2023/12/19 09:59:03;;;;;;;9.93;2.72;;;;;;;;;;5054779;28;20444;-26
2023/12/19 10:01:30;;;;;;;3.15;1.50;;;;;;;;;;5054410;28;20082;-24
2023/12/19 10:03:56;;;;;;;3.50;1.63;;;;;;;;;;5052642;28;20108;-25
2023/12/19 10:06:23;;;;;;;9.57;2.03;;;;;;;;;;5054427;28;20040;-27
2023/12/19 10:08:52;;;;;;;8.55;2.58;;;;;;;;;;5054657;28;20097;-25
2023/12/19 10:11:18;;;;;;;4.20;2.25;;;;;;;;;;5054174;28;20025;-27
2023/12/19 10:13:48;;;;;;;3.65;1.67;;;;;;;;;;5053322;28;20478;-27
2023/12/19 10:16:18;;;;;;;3.13;1.17;;;;;;;;;;5054269;28;20083;-24
2023/12/19 10:18:44;;;;;;;5.53;1.50;;;;;;;;;;5054171;28;20040;-26
2023/12/19 10:21:13;;;;;;;5.60;2.10;;;;;;;;;;5054167;28;20017;-26
2023/12/19 10:23:43;;;;;;;6.40;2.30;;;;;;;;;;5054159;28;20024;-26
2023/12/19 10:26:09;;;;;;;4.82;1.92;;;;;;;;;;5054039;28;20029;-26
2023/12/19 10:28:36;;;;;;;7.70;1.55;;;;;;;;;;5054325;28;20474;-25
2023/12/19 10:31:15;;;;;;;2.75;1.70;;;;;;;;;;5054016;28;20067;-26
2023/12/19 10:33:49;;;;;;;1.52;1.23;;;;;;;;;;5053851;28;20053;-26
2023/12/19 10:36:25;;;;;;;2.75;1.65;;;;;;;;;;5054607;28;20067;-25
2023/12/19 10:38:52;;;;;;;4.07;1.70;;;;;;;;;;5054257;28;20087;-24
2023/12/19 10:41:22;;;;;;;2.97;1.90;;;;;;;;;;5053270;28;20036;-25
2023/12/19 10:43:53;;;;;;;2.00;1.53;;;;;;;;;;5054101;28;20035;-25
2023/12/19 10:46:24;;;;;;;2.17;1.98;;;;;;;;;;5054080;28;20272;-25
2023/12/19 10:48:54;;;;;;;2.00;1.30;;;;;;;;;;5054414;28;20368;-25
2023/12/19 10:51:26;;;;;;;3.93;2.60;;;;;;;;;;5054136;28;20356;-27
2023/12/19 10:53:58;;;;;;;3.05;1.70;;;;;;;;;;5053974;28;20082;-24
2023/12/19 10:56:25;;;;;;;5.03;1.85;;;;;;;;;;5053998;28;20054;-25
2023/12/19 10:59:01;;;;;;;4.88;1.52;;;;;;;;;;5053993;28;20355;-26
2023/12/19 11:01:30;;;;;;;4.65;1.40;;;;;;;;;;5054160;28;20017;-27
2023/12/19 11:03:59;;;;;;;1.65;1.40;;;;;;;;;;5054136;28;20017;-24
2023/12/19 11:06:31;;;;;;;5.00;1.27;;;;;;;;;;5053913;28;20033;-25
2023/12/19 11:08:58;;;;;;;1.65;1.20;;;;;;;;;;5054246;28;20345;-26
2023/12/19 11:11:31;;;;;;;4.97;1.50;;;;;;;;;;5053549;28;20043;-25
2023/12/19 11:13:57;;;;;;;4.15;1.30;;;;;;;;;;5054850;28;20032;-27
2023/12/19 11:16:41;;;;;;;2.08;1.40;;;;;;;;;;5057551;28;20460;-25
2023/12/19 11:19:28;;;;;;;2.30;1.33;;;;;;;;;;5057691;28;20025;-23
2023/12/19 11:22:09;;;;;;;2.28;1.65;;;;;;;;;;5057445;28;20029;-23
2023/12/19 11:24:48;;;;;;;2.20;1.35;;;;;;;;;;5057264;28;20071;-26
2023/12/19 11:27:21;;;;;;;3.05;1.10;;;;;;;;;;5057660;28;20028;-24
2023/12/19 11:29:51;;;;;;;3.42;1.30;;;;;;;;;;5057346;28;20027;-26
2023/12/19 11:32:29;;;;;;;1.80;1.40;;;;;;;;;;5057005;28;20044;-24
2023/12/19 11:35:07;;;;;;;5.20;1.90;;;;;;;;;;5057232;28;20036;-25
2023/12/19 11:37:33;;;;;;;3.58;1.40;;;;;;;;;;5057518;28;20035;-23
2023/12/19 11:39:59;;;;;;;2.47;1.40;;;;;;;;;;5057152;28;20094;-23
2023/12/19 11:42:51;;;;;;;1.83;1.25;;;;;;;;;;5056975;28;20049;-25
2023/12/19 11:45:18;;;;;;;5.22;2.35;;;;;;;;;;5056388;28;20080;-25
2023/12/19 11:47:44;;;;;;;6.00;1.42;;;;;;;;;;5056938;28;20100;-23
2023/12/19 11:50:11;;;;;;;1.35;1.20;;;;;;;;;;5056910;28;20035;-24
2023/12/19 11:52:37;;;;;;;1.73;1.63;;;;;;;;;;5056783;28;20388;-24
2023/12/19 11:55:04;;;;;;;2.85;1.98;;;;;;;;;;5056595;28;20082;-25
2023/12/19 11:57:31;;;;;;;3.30;1.70;;;;;;;;;;5056716;28;20359;-27
2023/12/19 11:59:57;;;;;;;5.35;1.80;;;;;;;;;;5056576;28;20037;-28
2023/12/19 12:02:27;;;;;;;4.28;1.42;;;;;;;;;;5056850;28;20028;-25
2023/12/19 12:05:09;;;;;;;4.28;1.45;;;;;;;;;;5056652;28;20037;-26
2023/12/19 12:07:40;;;;;;;2.03;1.90;;;;;;;;;;5056578;28;20037;-26
2023/12/19 12:10:09;;;;;;;4.95;1.58;;;;;;;;;;5056292;28;20031;-25
2023/12/19 12:12:35;;;;;;;4.38;1.77;;;;;;;;;;5056218;28;20021;-26
2023/12/19 12:15:13;;;;;;;2.90;1.38;;;;;;;;;;5056447;28;20075;-26
2023/12/19 12:17:39;;;;;;;1.83;1.30;;;;;;;;;;5056359;28;20417;-24
2023/12/19 12:20:06;;;;;;;1.67;1.27;;;;;;;;;;5056466;28;20056;-26
2023/12/19 12:22:32;;;;;;;3.08;1.45;;;;;;;;;;5056016;28;20025;-25
2023/12/19 12:25:01;;;;;;;3.95;1.45;;;;;;;;;;5055875;28;20348;-27
2023/12/19 12:27:28;;;;;;;1.92;1.55;;;;;;;;;;5055785;28;20020;-24
2023/12/19 12:29:55;;;;;;;1.60;1.50;;;;;;;;;;5056084;28;20025;-27
2023/12/19 12:32:22;;;;;;;1.67;1.48;;;;;;;;;;5055806;28;20049;-27
2023/12/19 12:34:48;;;;;;;2.13;1.08;;;;;;;;;;5055963;28;20021;-27
2023/12/19 12:37:17;;;;;;;2.42;1.90;;;;;;;;;;5056204;28;20096;-26
2023/12/19 12:39:44;;;;;;;3.63;1.45;;;;;;;;;;5055512;28;20033;-23
2023/12/19 12:42:10;;;;;;;3.65;1.52;;;;;;;;;;5056140;28;20032;-24
2023/12/19 12:44:36;;;;;;;3.42;1.35;;;;;;;;;;5055827;28;20064;-25
2023/12/19 12:47:05;;;;;;;3.88;1.20;;;;;;;;;;5055769;28;20056;-27
2023/12/19 12:49:31;;;;;;;6.35;1.90;;;;;;;;;;5055701;28;20096;-25
2023/12/19 12:51:58;;;;;;;3.92;1.17;;;;;;;;;;5055916;28;20045;-24
2023/12/19 12:54:25;;;;;;;1.65;1.55;;;;;;;;;;5055875;28;20059;-25
2023/12/19 12:56:51;;;;;;;3.35;1.33;;;;;;;;;;5055624;28;20024;-25
2023/12/19 12:59:19;;;;;;;2.63;1.50;;;;;;;;;;5055615;28;20033;-25
2023/12/19 13:01:46;;;;;;;7.85;1.50;;;;;;;;;;5055387;28;20028;-25
2023/12/19 13:04:13;;;;;;;1.83;1.15;;;;;;;;;;5055769;28;20028;-25
2023/12/19 13:06:43;;;;;;;1.20;1.10;;;;;;;;;;5055718;28;20352;-25
2023/12/19 13:09:13;;;;;;;3.58;1.90;;;;;;;;;;5055445;28;20036;-24
2023/12/19 13:11:47;;;;;;;2.83;1.63;;;;;;;;;;5055532;28;20028;-26
2023/12/19 13:14:14;;;;;;;2.60;1.77;;;;;;;;;;5055131;28;20025;-26
2023/12/19 13:16:41;;;;;;;4.93;1.42;;;;;;;;;;5055453;28;20047;-25
2023/12/19 13:19:07;;;;;;;3.30;1.67;;;;;;;;;;5055094;28;20021;-27
2023/12/19 13:21:33;;;;;;;1.30;1.20;;;;;;;;;;5054890;28;20053;-27
2023/12/19 13:23:59;;;;;;;2.35;1.60;;;;;;;;;;5055106;28;20024;-23
2023/12/19 13:26:25;;;;;;;1.40;1.10;;;;;;;;;;5055085;28;20460;-23
2023/12/19 13:28:55;;;;;;;2.13;1.40;;;;;;;;;;5055086;28;20094;-25
2023/12/19 13:31:21;;;;;;;1.67;1.40;;;;;;;;;;5055003;28;20033;-27
2023/12/19 13:33:47;;;;;;;1.98;1.25;;;;;;;;;;5054737;28;20049;-27
2023/12/19 13:36:16;;;;;;;2.50;1.50;;;;;;;;;;5055031;28;20029;-25
2023/12/19 13:38:46;;;;;;;1.80;1.35;;;;;;;;;;5054946;28;20395;-25
2023/12/19 13:41:15;;;;;;;1.90;1.15;;;;;;;;;;5054716;28;20060;-26
2023/12/19 13:43:41;;;;;;;1.45;1.17;;;;;;;;;;5055859;28;20399;-25
2023/12/19 13:46:08;;;;;;;2.33;1.33;;;;;;;;;;5054638;28;20029;-28
2023/12/19 13:48:34;;;;;;;3.90;1.30;;;;;;;;;;5054815;28;20025;-24
2023/12/19 13:51:04;;;;;;;6.70;2.78;;;;;;;;;;5054792;28;20021;-25
2023/12/19 13:53:31;;;;;;;2.00;1.10;;;;;;;;;;5055214;28;20301;-26
2023/12/19 13:55:57;;;;;;;1.45;1.30;;;;;;;;;;5054782;28;20130;-25
2023/12/19 13:58:23;;;;;;;1.30;1.20;;;;;;;;;;5054954;28;20029;-25
2023/12/19 14:00:54;;;;;;;1.63;1.33;;;;;;;;;;5054598;28;20448;-26
2023/12/19 14:03:20;;;;;;;;;;;;;;;;;;5055405;28;20048;-26
2023/12/19 14:05:46;;;;;;;4.03;1.77;;;;;;;;;;5054447;28;20247;-24
2023/12/19 14:08:18;;;;;;;2.22;1.30;;;;;;;;;;5054470;28;20052;-26
2023/12/19 14:10:44;;;;;;;1.90;1.80;;;;;;;;;;5054697;28;20017;-27
2023/12/19 14:13:10;;;;;;;3.50;1.85;;;;;;;;;;5054841;28;20355;-26
2023/12/19 14:15:38;;;;;;;3.13;1.48;;;;;;;;;;5054467;28;20403;-26
2023/12/19 14:18:04;;;;;;;3.50;1.25;;;;;;;;;;5054783;28;20434;-24
2023/12/19 14:20:31;;;;;;;6.18;2.35;;;;;;;;;;5054358;28;20028;-24
2023/12/19 14:22:58;;;;;;;1.77;1.25;;;;;;;;;;5054384;28;20451;-26
2023/12/19 14:25:24;;;;;;;3.00;1.30;;;;;;;;;;5054294;28;20108;-26
2023/12/19 14:27:52;;;;;;;5.18;1.40;;;;;;;;;;5054364;28;20509;-25
2023/12/19 14:30:19;;;;;;;2.03;1.40;;;;;;;;;;5054197;28;20436;-27
2023/12/19 14:32:45;;;;;;;2.60;1.48;;;;;;;;;;5054248;28;20474;-24
2023/12/19 14:35:11;;;;;;;2.58;1.55;;;;;;;;;;5054260;28;20033;-26
2023/12/19 14:37:37;;;;;;;1.95;1.52;;;;;;;;;;5054437;28;20037;-23
2023/12/19 14:40:04;;;;;;;2.33;1.30;;;;;;;;;;5054545;28;20370;-23
2023/12/19 14:42:31;;;;;;;4.65;2.00;;;;;;;;;;5054445;28;20025;-23
2023/12/19 14:44:58;;;;;;;1.85;1.45;;;;;;;;;;5054167;28;20025;-23